»·PEaware :: N221CD KAJO-KVCV

N221CD :: KAJO-KVCV

FLIGHT INFORMATION

Flight Status: Arrived
Operator: Privately registered:
United States
More flights under this callsign
Pilot: Robert J. (23614)
Aircraft: CESSNA 172 SKYHAWK
(C172)
More flights by this aircraft type
Origin: KAJO Corona Mun
United States
Destination: KVCV Socal Logistics
United States
More flights between these airports :: More routes between these airports
Route: +PDZ V442 APLES
File this flight plan on PilotEdge
Remarks:
Altitude:
(Current/Filed)
9,000ft
Speed:
(Current/Filed)
130kts
Departed: 18-Nov-20 11:42 AM
Arrived: 18-Nov-20 12:40 PM
Distance/Time
Traveled:
43nm/0:58
Distance/Time
To Go:
Arrived

Flight Plot

Page will automatically refresh every two minutes.


Map Options




Map Legend


Flown Route
Filed Route
Departure Airport
Arrival Airport
Navaid (VOR, NDB)
Fix

Horizontal Profiles

Position Reports

Time Latitude Longitude Heading Altitude Ground
Speed
18-Nov-20 11:27 33.896802 -117.597644 268 537ft 0kts
18-Nov-20 11:28 33.896802 -117.597644 268 537ft 0kts
18-Nov-20 11:29 33.896802 -117.597644 268 537ft 0kts
18-Nov-20 11:30 33.896802 -117.597644 268 537ft 0kts
18-Nov-20 11:31 33.896802 -117.597644 268 537ft 0kts
18-Nov-20 11:32 33.896802 -117.597644 268 537ft 0kts
18-Nov-20 11:33 33.896802 -117.597644 268 537ft 0kts
18-Nov-20 11:34 33.896802 -117.597644 268 537ft 0kts
18-Nov-20 11:35 33.896802 -117.597644 268 537ft 0kts
18-Nov-20 11:36 33.896802 -117.597644 268 537ft 0kts
18-Nov-20 11:37 33.896802 -117.597644 268 537ft 0kts
18-Nov-20 11:38 33.897236 -117.597559 28 537ft 0kts
18-Nov-20 11:39 33.897236 -117.597559 28 537ft 0kts
18-Nov-20 11:40 33.897236 -117.597559 28 537ft 0kts
18-Nov-20 11:41 33.897692 -117.604370 267 594ft 80kts
18-Nov-20 11:42 33.912266 -117.617556 35 1499ft 110kts
18-Nov-20 11:43 33.913747 -117.580787 95 2302ft 116kts
18-Nov-20 11:44 33.917802 -117.541382 75 3119ft 121kts
18-Nov-20 11:45 33.940892 -117.518794 6 3931ft 115kts
18-Nov-20 11:46 33.944503 -117.489711 171 4720ft 105kts
18-Nov-20 11:47 33.929303 -117.508942 250 5531ft 84kts
18-Nov-20 11:48 33.923842 -117.534320 293 6343ft 88kts
18-Nov-20 11:49 33.949290 -117.522672 50 7149ft 125kts
18-Nov-20 11:50 33.972127 -117.492664 26 7972ft 118kts
18-Nov-20 11:51 33.999536 -117.472257 15 8653ft 122kts
18-Nov-20 11:52 34.032239 -117.452051 15 8998ft 143kts
18-Nov-20 11:53 34.070109 -117.429653 16 8997ft 156kts
18-Nov-20 11:54 34.109432 -117.406650 16 8993ft 157kts
18-Nov-20 11:55 34.148742 -117.383699 15 8993ft 156kts
18-Nov-20 11:56 34.188049 -117.360781 15 8993ft 156kts
18-Nov-20 11:57 34.227274 -117.337885 16 8987ft 156kts
18-Nov-20 11:58 34.266352 -117.315059 16 8985ft 156kts
18-Nov-20 11:59 34.305422 -117.292208 16 8980ft 156kts
18-Nov-20 12:00 34.344561 -117.269293 17 8977ft 155kts
18-Nov-20 12:01 34.383357 -117.246546 16 9019ft 153kts
18-Nov-20 12:02 34.422267 -117.223725 17 9021ft 155kts
18-Nov-20 12:03 34.461318 -117.200791 17 9019ft 156kts
18-Nov-20 12:04 34.500357 -117.177846 17 9016ft 155kts
18-Nov-20 12:05 34.539238 -117.154965 17 9012ft 155kts
18-Nov-20 12:06 34.579677 -117.143537 354 8379ft 146kts
18-Nov-20 12:07 34.619398 -117.144782 343 7675ft 140kts
18-Nov-20 12:08 34.656834 -117.154860 333 6971ft 135kts
18-Nov-20 12:09 34.690834 -117.172532 323 6601ft 131kts
18-Nov-20 12:10 34.721640 -117.197407 312 6600ft 132kts
18-Nov-20 12:11 34.746823 -117.226666 302 6596ft 121kts
18-Nov-20 12:12 34.766951 -117.259652 293 6593ft 120kts
18-Nov-20 12:13 34.781976 -117.295102 284 6326ft 111kts
18-Nov-20 12:14 34.791867 -117.332107 277 5528ft 120kts
18-Nov-20 12:15 34.796462 -117.369433 253 5166ft 97kts
18-Nov-20 12:16 34.769958 -117.375776 182 4574ft 111kts
18-Nov-20 12:17 34.740141 -117.377358 186 4299ft 101kts
18-Nov-20 12:18 34.711783 -117.379727 186 4300ft 102kts
18-Nov-20 12:19 34.683045 -117.382342 186 4013ft 107kts
18-Nov-20 12:20 34.654872 -117.384742 185 3422ft 97kts
18-Nov-20 12:22 34.627022 -117.387106 185 3199ft 102kts
18-Nov-20 12:23 34.595472 -117.388637 191 3495ft 120kts
18-Nov-20 12:24 34.595881 -117.420865 291 4062ft 111kts
18-Nov-20 12:25 34.604842 -117.455104 278 4758ft 103kts
18-Nov-20 12:26 34.611361 -117.488314 276 5453ft 99kts
18-Nov-20 12:27 34.617547 -117.520743 275 5998ft 107kts
18-Nov-20 12:28 34.624949 -117.559199 276 5999ft 121kts
18-Nov-20 12:29 34.636342 -117.594776 341 5992ft 139kts
18-Nov-20 12:30 34.664740 -117.566834 86 5622ft 153kts
18-Nov-20 12:31 34.669358 -117.515499 92 5115ft 146kts
18-Nov-20 12:32 34.655438 -117.481097 143 4704ft 117kts
18-Nov-20 12:33 34.628159 -117.465450 168 4199ft 111kts
18-Nov-20 12:34 34.601375 -117.449230 147 3999ft 104kts
18-Nov-20 12:35 34.585855 -117.420470 101 3999ft 109kts
18-Nov-20 12:36 34.595944 -117.385019 59 3999ft 115kts
18-Nov-20 12:37 34.618113 -117.357502 28 3999ft 116kts
18-Nov-20 12:37 34.621314 -117.333192 157 3998ft 103kts
18-Nov-20 12:39 34.605814 -117.360394 223 3092ft 83kts
18-Nov-20 12:39 34.596645 -117.371095 224 2854ft 26kts
18-Nov-20 12:41 34.593461 -117.372647 173 2860ft 15kts

Navigation Log

Ident Type
Flight plan parsing failed, navigation log unavailable